sensor_id;sensor_type;location;lat;lon;timestamp;P1;durP1;ratioP1;P2;durP2;ratioP2
11907;SDS011;6014;47.690;9.130;2023-11-22T00:01:35;3.63;;;1.60;;
11907;SDS011;6014;47.690;9.130;2023-11-22T00:04:04;3.13;;;1.70;;
11907;SDS011;6014;47.690;9.130;2023-11-22T00:06:32;3.75;;;1.30;;
11907;SDS011;6014;47.690;9.130;2023-11-22T00:09:01;3.55;;;1.83;;
11907;SDS011;6014;47.690;9.130;2023-11-22T00:11:30;2.83;;;1.48;;
11907;SDS011;6014;47.690;9.130;2023-11-22T00:13:59;3.45;;;1.67;;
11907;SDS011;6014;47.690;9.130;2023-11-22T00:16:27;3.05;;;1.58;;
11907;SDS011;6014;47.690;9.130;2023-11-22T00:18:56;2.83;;;1.30;;
11907;SDS011;6014;47.690;9.130;2023-11-22T00:21:24;4.23;;;2.00;;
11907;SDS011;6014;47.690;9.130;2023-11-22T00:23:52;1.77;;;1.27;;
11907;SDS011;6014;47.690;9.130;2023-11-22T00:26:22;2.77;;;1.50;;
11907;SDS011;6014;47.690;9.130;2023-11-22T00:28:50;3.50;;;1.53;;
11907;SDS011;6014;47.690;9.130;2023-11-22T00:31:19;9.13;;;2.20;;
11907;SDS011;6014;47.690;9.130;2023-11-22T00:33:47;4.95;;;2.25;;
11907;SDS011;6014;47.690;9.130;2023-11-22T00:36:31;3.92;;;1.83;;
11907;SDS011;6014;47.690;9.130;2023-11-22T00:39:00;3.90;;;1.75;;
11907;SDS011;6014;47.690;9.130;2023-11-22T00:41:32;3.42;;;1.65;;
11907;SDS011;6014;47.690;9.130;2023-11-22T00:44:01;3.85;;;1.95;;
11907;SDS011;6014;47.690;9.130;2023-11-22T00:46:32;3.40;;;1.85;;
11907;SDS011;6014;47.690;9.130;2023-11-22T00:49:00;3.67;;;2.00;;
11907;SDS011;6014;47.690;9.130;2023-11-22T00:51:28;3.90;;;1.92;;
11907;SDS011;6014;47.690;9.130;2023-11-22T00:53:57;3.22;;;1.67;;
11907;SDS011;6014;47.690;9.130;2023-11-22T00:56:25;3.85;;;1.80;;
11907;SDS011;6014;47.690;9.130;2023-11-22T00:58:55;5.37;;;1.90;;
11907;SDS011;6014;47.690;9.130;2023-11-22T01:01:26;4.15;;;1.90;;
11907;SDS011;6014;47.690;9.130;2023-11-22T01:03:55;4.90;;;1.80;;
11907;SDS011;6014;47.690;9.130;2023-11-22T01:06:23;4.75;;;1.92;;
11907;SDS011;6014;47.690;9.130;2023-11-22T01:08:52;5.23;;;1.87;;
11907;SDS011;6014;47.690;9.130;2023-11-22T01:11:20;6.20;;;1.75;;
11907;SDS011;6014;47.690;9.130;2023-11-22T01:13:49;3.53;;;1.80;;
11907;SDS011;6014;47.690;9.130;2023-11-22T01:16:25;4.73;;;2.03;;
11907;SDS011;6014;47.690;9.130;2023-11-22T01:18:53;3.22;;;1.58;;
11907;SDS011;6014;47.690;9.130;2023-11-22T01:21:21;3.97;;;1.97;;
11907;SDS011;6014;47.690;9.130;2023-11-22T01:23:49;4.30;;;2.03;;
11907;SDS011;6014;47.690;9.130;2023-11-22T01:29:09;4.33;;;1.80;;
11907;SDS011;6014;47.690;9.130;2023-11-22T01:31:39;3.53;;;1.83;;
11907;SDS011;6014;47.690;9.130;2023-11-22T01:34:10;4.70;;;2.28;;
11907;SDS011;6014;47.690;9.130;2023-11-22T01:36:41;4.30;;;1.87;;
11907;SDS011;6014;47.690;9.130;2023-11-22T01:39:10;3.00;;;1.63;;
11907;SDS011;6014;47.690;9.130;2023-11-22T01:41:39;3.28;;;1.77;;
11907;SDS011;6014;47.690;9.130;2023-11-22T01:44:08;3.78;;;2.03;;
11907;SDS011;6014;47.690;9.130;2023-11-22T01:46:37;4.38;;;2.08;;
11907;SDS011;6014;47.690;9.130;2023-11-22T01:49:07;4.70;;;2.10;;
11907;SDS011;6014;47.690;9.130;2023-11-22T01:51:39;2.92;;;1.67;;
11907;SDS011;6014;47.690;9.130;2023-11-22T01:54:08;5.00;;;2.50;;
11907;SDS011;6014;47.690;9.130;2023-11-22T01:56:38;3.57;;;1.83;;
11907;SDS011;6014;47.690;9.130;2023-11-22T01:59:06;4.65;;;1.83;;
11907;SDS011;6014;47.690;9.130;2023-11-22T02:01:35;4.50;;;2.10;;
11907;SDS011;6014;47.690;9.130;2023-11-22T02:04:03;5.43;;;1.70;;
11907;SDS011;6014;47.690;9.130;2023-11-22T02:06:34;2.97;;;1.60;;
11907;SDS011;6014;47.690;9.130;2023-11-22T02:09:03;3.97;;;2.00;;
11907;SDS011;6014;47.690;9.130;2023-11-22T02:11:31;4.37;;;2.20;;
11907;SDS011;6014;47.690;9.130;2023-11-22T02:13:59;4.35;;;2.05;;
11907;SDS011;6014;47.690;9.130;2023-11-22T02:16:27;4.00;;;2.20;;
11907;SDS011;6014;47.690;9.130;2023-11-22T02:18:56;4.00;;;2.15;;
11907;SDS011;6014;47.690;9.130;2023-11-22T02:23:59;7.43;;;2.63;;
11907;SDS011;6014;47.690;9.130;2023-11-22T02:26:28;5.80;;;2.78;;
11907;SDS011;6014;47.690;9.130;2023-11-22T02:28:57;4.47;;;2.42;;
11907;SDS011;6014;47.690;9.130;2023-11-22T02:31:26;6.72;;;2.20;;
11907;SDS011;6014;47.690;9.130;2023-11-22T02:33:54;7.23;;;2.77;;
11907;SDS011;6014;47.690;9.130;2023-11-22T02:36:22;6.45;;;3.03;;
11907;SDS011;6014;47.690;9.130;2023-11-22T02:38:51;7.50;;;3.57;;
11907;SDS011;6014;47.690;9.130;2023-11-22T02:41:23;10.15;;;4.00;;
11907;SDS011;6014;47.690;9.130;2023-11-22T02:43:56;8.57;;;3.47;;
11907;SDS011;6014;47.690;9.130;2023-11-22T02:46:24;6.67;;;2.63;;
11907;SDS011;6014;47.690;9.130;2023-11-22T02:48:52;10.35;;;3.88;;
11907;SDS011;6014;47.690;9.130;2023-11-22T02:51:21;11.18;;;5.35;;
11907;SDS011;6014;47.690;9.130;2023-11-22T02:53:49;12.70;;;5.13;;
11907;SDS011;6014;47.690;9.130;2023-11-22T02:56:17;11.20;;;4.57;;
11907;SDS011;6014;47.690;9.130;2023-11-22T02:58:47;9.53;;;4.00;;
11907;SDS011;6014;47.690;9.130;2023-11-22T03:04:09;7.10;;;2.70;;
11907;SDS011;6014;47.690;9.130;2023-11-22T03:06:48;5.50;;;2.57;;
11907;SDS011;6014;47.690;9.130;2023-11-22T03:09:16;5.28;;;2.70;;
11907;SDS011;6014;47.690;9.130;2023-11-22T03:11:44;5.03;;;2.33;;
11907;SDS011;6014;47.690;9.130;2023-11-22T03:14:13;4.38;;;2.25;;
11907;SDS011;6014;47.690;9.130;2023-11-22T03:16:42;5.55;;;3.00;;
11907;SDS011;6014;47.690;9.130;2023-11-22T03:19:10;4.68;;;2.40;;
11907;SDS011;6014;47.690;9.130;2023-11-22T03:21:39;6.28;;;2.55;;
11907;SDS011;6014;47.690;9.130;2023-11-22T03:24:10;5.15;;;2.60;;
11907;SDS011;6014;47.690;9.130;2023-11-22T03:26:38;5.40;;;2.43;;
11907;SDS011;6014;47.690;9.130;2023-11-22T03:29:06;5.10;;;2.85;;
11907;SDS011;6014;47.690;9.130;2023-11-22T03:31:36;4.18;;;2.03;;
11907;SDS011;6014;47.690;9.130;2023-11-22T03:34:05;5.45;;;2.28;;
11907;SDS011;6014;47.690;9.130;2023-11-22T03:36:33;5.03;;;2.35;;
11907;SDS011;6014;47.690;9.130;2023-11-22T03:39:01;3.92;;;2.08;;
11907;SDS011;6014;47.690;9.130;2023-11-22T03:41:34;4.20;;;2.08;;
11907;SDS011;6014;47.690;9.130;2023-11-22T03:44:04;5.88;;;2.60;;
11907;SDS011;6014;47.690;9.130;2023-11-22T03:46:36;3.87;;;1.93;;
11907;SDS011;6014;47.690;9.130;2023-11-22T03:49:05;5.53;;;2.67;;
11907;SDS011;6014;47.690;9.130;2023-11-22T03:51:34;5.70;;;3.00;;
11907;SDS011;6014;47.690;9.130;2023-11-22T03:56:39;6.15;;;2.30;;
11907;SDS011;6014;47.690;9.130;2023-11-22T03:59:07;4.82;;;2.50;;
11907;SDS011;6014;47.690;9.130;2023-11-22T04:01:36;5.27;;;2.57;;
11907;SDS011;6014;47.690;9.130;2023-11-22T04:04:04;7.20;;;3.47;;
11907;SDS011;6014;47.690;9.130;2023-11-22T04:06:35;4.90;;;2.60;;
11907;SDS011;6014;47.690;9.130;2023-11-22T04:09:03;7.93;;;3.63;;
11907;SDS011;6014;47.690;9.130;2023-11-22T04:11:31;11.23;;;4.97;;
11907;SDS011;6014;47.690;9.130;2023-11-22T04:14:00;10.07;;;4.72;;
11907;SDS011;6014;47.690;9.130;2023-11-22T04:16:29;8.10;;;4.00;;
11907;SDS011;6014;47.690;9.130;2023-11-22T04:18:58;12.63;;;4.93;;
11907;SDS011;6014;47.690;9.130;2023-11-22T04:21:27;18.80;;;6.60;;
11907;SDS011;6014;47.690;9.130;2023-11-22T04:24:03;8.48;;;3.58;;
11907;SDS011;6014;47.690;9.130;2023-11-22T04:26:32;10.80;;;4.20;;
11907;SDS011;6014;47.690;9.130;2023-11-22T04:29:00;6.75;;;2.75;;
11907;SDS011;6014;47.690;9.130;2023-11-22T04:31:28;12.67;;;4.60;;
11907;SDS011;6014;47.690;9.130;2023-11-22T04:33:58;7.20;;;3.13;;
11907;SDS011;6014;47.690;9.130;2023-11-22T04:36:26;6.57;;;2.63;;
11907;SDS011;6014;47.690;9.130;2023-11-22T04:38:55;6.90;;;2.38;;
11907;SDS011;6014;47.690;9.130;2023-11-22T04:41:23;5.20;;;2.08;;
11907;SDS011;6014;47.690;9.130;2023-11-22T04:43:52;4.15;;;2.03;;
11907;SDS011;6014;47.690;9.130;2023-11-22T04:46:20;3.83;;;1.73;;
11907;SDS011;6014;47.690;9.130;2023-11-22T04:48:49;6.90;;;1.90;;
11907;SDS011;6014;47.690;9.130;2023-11-22T04:51:19;4.82;;;1.80;;
11907;SDS011;6014;47.690;9.130;2023-11-22T04:56:33;4.20;;;2.00;;
11907;SDS011;6014;47.690;9.130;2023-11-22T04:59:01;4.43;;;2.17;;
11907;SDS011;6014;47.690;9.130;2023-11-22T05:01:31;5.57;;;2.00;;
11907;SDS011;6014;47.690;9.130;2023-11-22T05:03:59;3.60;;;1.97;;
11907;SDS011;6014;47.690;9.130;2023-11-22T05:06:29;3.90;;;2.00;;
11907;SDS011;6014;47.690;9.130;2023-11-22T05:08:57;5.07;;;1.67;;
11907;SDS011;6014;47.690;9.130;2023-11-22T05:11:25;5.10;;;2.03;;
11907;SDS011;6014;47.690;9.130;2023-11-22T05:13:54;4.68;;;2.15;;
11907;SDS011;6014;47.690;9.130;2023-11-22T05:16:22;5.15;;;2.15;;
11907;SDS011;6014;47.690;9.130;2023-11-22T05:18:50;5.05;;;2.08;;
11907;SDS011;6014;47.690;9.130;2023-11-22T05:21:18;2.63;;;1.30;;
11907;SDS011;6014;47.690;9.130;2023-11-22T05:23:51;1.83;;;1.10;;
11907;SDS011;6014;47.690;9.130;2023-11-22T05:26:20;3.17;;;1.15;;
11907;SDS011;6014;47.690;9.130;2023-11-22T05:28:48;1.57;;;1.00;;
11907;SDS011;6014;47.690;9.130;2023-11-22T05:31:17;2.40;;;0.97;;
11907;SDS011;6014;47.690;9.130;2023-11-22T05:33:49;1.05;;;0.70;;
11907;SDS011;6014;47.690;9.130;2023-11-22T05:36:17;1.43;;;0.90;;
11907;SDS011;6014;47.690;9.130;2023-11-22T05:38:46;2.60;;;1.10;;
11907;SDS011;6014;47.690;9.130;2023-11-22T05:41:15;1.07;;;0.87;;
11907;SDS011;6014;47.690;9.130;2023-11-22T05:43:44;1.67;;;0.77;;
11907;SDS011;6014;47.690;9.130;2023-11-22T05:46:12;2.13;;;1.08;;
11907;SDS011;6014;47.690;9.130;2023-11-22T05:48:40;2.15;;;1.13;;
11907;SDS011;6014;47.690;9.130;2023-11-22T05:51:08;2.27;;;0.97;;
11907;SDS011;6014;47.690;9.130;2023-11-22T05:53:36;1.27;;;0.85;;
11907;SDS011;6014;47.690;9.130;2023-11-22T05:56:10;1.48;;;0.82;;
11907;SDS011;6014;47.690;9.130;2023-11-22T05:58:41;1.57;;;1.07;;
11907;SDS011;6014;47.690;9.130;2023-11-22T06:01:09;2.03;;;0.90;;
11907;SDS011;6014;47.690;9.130;2023-11-22T06:03:45;2.07;;;1.30;;
11907;SDS011;6014;47.690;9.130;2023-11-22T06:06:15;2.37;;;1.23;;
11907;SDS011;6014;47.690;9.130;2023-11-22T06:08:43;2.20;;;1.40;;
11907;SDS011;6014;47.690;9.130;2023-11-22T06:11:13;2.00;;;1.27;;
11907;SDS011;6014;47.690;9.130;2023-11-22T06:13:48;4.10;;;2.20;;
11907;SDS011;6014;47.690;9.130;2023-11-22T06:16:16;3.80;;;1.87;;
11907;SDS011;6014;47.690;9.130;2023-11-22T06:18:44;3.53;;;1.97;;
11907;SDS011;6014;47.690;9.130;2023-11-22T06:21:25;3.10;;;1.90;;
11907;SDS011;6014;47.690;9.130;2023-11-22T06:23:53;3.37;;;1.80;;
11907;SDS011;6014;47.690;9.130;2023-11-22T06:26:25;2.23;;;1.40;;
11907;SDS011;6014;47.690;9.130;2023-11-22T06:28:54;2.67;;;1.70;;
11907;SDS011;6014;47.690;9.130;2023-11-22T06:31:23;3.43;;;1.70;;
11907;SDS011;6014;47.690;9.130;2023-11-22T06:33:51;2.87;;;1.67;;
11907;SDS011;6014;47.690;9.130;2023-11-22T06:36:19;3.27;;;1.60;;
11907;SDS011;6014;47.690;9.130;2023-11-22T06:38:47;2.10;;;1.30;;
11907;SDS011;6014;47.690;9.130;2023-11-22T06:41:16;2.60;;;1.47;;
11907;SDS011;6014;47.690;9.130;2023-11-22T06:43:44;3.07;;;1.90;;
11907;SDS011;6014;47.690;9.130;2023-11-22T06:46:14;4.17;;;2.00;;
11907;SDS011;6014;47.690;9.130;2023-11-22T06:48:42;3.13;;;1.73;;
11907;SDS011;6014;47.690;9.130;2023-11-22T06:51:15;3.70;;;1.87;;
11907;SDS011;6014;47.690;9.130;2023-11-22T06:53:44;2.80;;;1.80;;
11907;SDS011;6014;47.690;9.130;2023-11-22T06:56:17;3.57;;;1.50;;
11907;SDS011;6014;47.690;9.130;2023-11-22T06:58:45;2.53;;;1.47;;
11907;SDS011;6014;47.690;9.130;2023-11-22T07:01:15;4.27;;;1.70;;
11907;SDS011;6014;47.690;9.130;2023-11-22T07:03:43;2.70;;;1.80;;
11907;SDS011;6014;47.690;9.130;2023-11-22T07:06:11;3.40;;;1.90;;
11907;SDS011;6014;47.690;9.130;2023-11-22T07:08:40;2.53;;;1.60;;
11907;SDS011;6014;47.690;9.130;2023-11-22T07:11:09;3.97;;;2.03;;
11907;SDS011;6014;47.690;9.130;2023-11-22T07:13:43;3.20;;;1.40;;
11907;SDS011;6014;47.690;9.130;2023-11-22T07:16:11;4.33;;;1.73;;
11907;SDS011;6014;47.690;9.130;2023-11-22T07:18:42;3.67;;;1.83;;
11907;SDS011;6014;47.690;9.130;2023-11-22T07:21:11;3.27;;;1.73;;
11907;SDS011;6014;47.690;9.130;2023-11-22T07:23:39;2.90;;;1.60;;
11907;SDS011;6014;47.690;9.130;2023-11-22T07:26:07;2.90;;;1.70;;
11907;SDS011;6014;47.690;9.130;2023-11-22T07:28:36;3.43;;;1.70;;
11907;SDS011;6014;47.690;9.130;2023-11-22T07:31:16;3.67;;;1.97;;
11907;SDS011;6014;47.690;9.130;2023-11-22T07:33:47;3.30;;;1.87;;
11907;SDS011;6014;47.690;9.130;2023-11-22T07:36:15;2.83;;;1.70;;
11907;SDS011;6014;47.690;9.130;2023-11-22T07:38:54;3.73;;;1.87;;
11907;SDS011;6014;47.690;9.130;2023-11-22T07:41:22;3.97;;;1.57;;
11907;SDS011;6014;47.690;9.130;2023-11-22T07:43:50;5.73;;;2.03;;
11907;SDS011;6014;47.690;9.130;2023-11-22T07:46:20;3.57;;;1.80;;
11907;SDS011;6014;47.690;9.130;2023-11-22T07:48:49;2.73;;;1.67;;
11907;SDS011;6014;47.690;9.130;2023-11-22T07:51:18;3.73;;;1.90;;
11907;SDS011;6014;47.690;9.130;2023-11-22T07:53:46;3.17;;;1.80;;
11907;SDS011;6014;47.690;9.130;2023-11-22T07:56:15;4.50;;;2.00;;
11907;SDS011;6014;47.690;9.130;2023-11-22T07:58:48;5.50;;;1.97;;
11907;SDS011;6014;47.690;9.130;2023-11-22T08:01:16;3.67;;;2.00;;
11907;SDS011;6014;47.690;9.130;2023-11-22T08:03:45;4.40;;;2.10;;
11907;SDS011;6014;47.690;9.130;2023-11-22T08:06:15;3.10;;;1.77;;
11907;SDS011;6014;47.690;9.130;2023-11-22T08:08:43;3.37;;;1.83;;
11907;SDS011;6014;47.690;9.130;2023-11-22T08:11:19;2.83;;;1.57;;
11907;SDS011;6014;47.690;9.130;2023-11-22T08:13:47;3.40;;;1.83;;
11907;SDS011;6014;47.690;9.130;2023-11-22T08:16:15;2.60;;;1.60;;
11907;SDS011;6014;47.690;9.130;2023-11-22T08:18:46;2.60;;;1.50;;
11907;SDS011;6014;47.690;9.130;2023-11-22T08:21:16;5.17;;;1.77;;
11907;SDS011;6014;47.690;9.130;2023-11-22T08:23:45;2.57;;;1.50;;
11907;SDS011;6014;47.690;9.130;2023-11-22T08:26:13;3.47;;;1.87;;
11907;SDS011;6014;47.690;9.130;2023-11-22T08:28:42;2.70;;;1.47;;
11907;SDS011;6014;47.690;9.130;2023-11-22T08:31:10;2.33;;;1.33;;
11907;SDS011;6014;47.690;9.130;2023-11-22T08:33:38;2.20;;;1.40;;
11907;SDS011;6014;47.690;9.130;2023-11-22T08:36:07;2.60;;;1.30;;
11907;SDS011;6014;47.690;9.130;2023-11-22T08:38:37;2.67;;;1.50;;
11907;SDS011;6014;47.690;9.130;2023-11-22T08:41:08;2.40;;;1.47;;
11907;SDS011;6014;47.690;9.130;2023-11-22T08:43:39;1.87;;;1.10;;
11907;SDS011;6014;47.690;9.130;2023-11-22T08:46:07;1.77;;;1.10;;
11907;SDS011;6014;47.690;9.130;2023-11-22T08:48:40;1.33;;;0.90;;
11907;SDS011;6014;47.690;9.130;2023-11-22T08:51:17;2.13;;;1.07;;
11907;SDS011;6014;47.690;9.130;2023-11-22T08:53:47;2.00;;;1.17;;
11907;SDS011;6014;47.690;9.130;2023-11-22T08:56:15;2.17;;;1.10;;
11907;SDS011;6014;47.690;9.130;2023-11-22T08:58:43;1.63;;;1.00;;
11907;SDS011;6014;47.690;9.130;2023-11-22T09:01:11;3.53;;;0.90;;
11907;SDS011;6014;47.690;9.130;2023-11-22T09:03:41;2.30;;;1.23;;
11907;SDS011;6014;47.690;9.130;2023-11-22T09:06:11;2.70;;;1.50;;
11907;SDS011;6014;47.690;9.130;2023-11-22T09:08:39;2.00;;;1.20;;
11907;SDS011;6014;47.690;9.130;2023-11-22T09:11:08;1.73;;;1.20;;
11907;SDS011;6014;47.690;9.130;2023-11-22T09:13:36;3.40;;;1.10;;
11907;SDS011;6014;47.690;9.130;2023-11-22T09:16:06;2.93;;;1.17;;
11907;SDS011;6014;47.690;9.130;2023-11-22T09:18:35;3.37;;;1.10;;
11907;SDS011;6014;47.690;9.130;2023-11-22T09:21:04;4.83;;;1.17;;
11907;SDS011;6014;47.690;9.130;2023-11-22T09:23:34;1.67;;;1.13;;
11907;SDS011;6014;47.690;9.130;2023-11-22T09:26:03;2.57;;;1.30;;
11907;SDS011;6014;47.690;9.130;2023-11-22T09:28:33;2.27;;;1.07;;
11907;SDS011;6014;47.690;9.130;2023-11-22T09:31:01;3.37;;;1.30;;
11907;SDS011;6014;47.690;9.130;2023-11-22T09:33:32;2.03;;;1.30;;
11907;SDS011;6014;47.690;9.130;2023-11-22T09:36:01;1.00;;;0.90;;
11907;SDS011;6014;47.690;9.130;2023-11-22T09:38:35;3.13;;;1.50;;
11907;SDS011;6014;47.690;9.130;2023-11-22T09:41:04;1.53;;;1.07;;
11907;SDS011;6014;47.690;9.130;2023-11-22T09:43:36;2.57;;;1.33;;
11907;SDS011;6014;47.690;9.130;2023-11-22T09:46:08;1.53;;;1.10;;
11907;SDS011;6014;47.690;9.130;2023-11-22T09:48:38;3.07;;;1.37;;
11907;SDS011;6014;47.690;9.130;2023-11-22T09:51:08;2.00;;;1.23;;
11907;SDS011;6014;47.690;9.130;2023-11-22T09:53:45;4.03;;;1.40;;
11907;SDS011;6014;47.690;9.130;2023-11-22T09:56:19;3.10;;;1.40;;
11907;SDS011;6014;47.690;9.130;2023-11-22T09:58:50;2.20;;;1.40;;
11907;SDS011;6014;47.690;9.130;2023-11-22T10:01:21;2.53;;;1.27;;
11907;SDS011;6014;47.690;9.130;2023-11-22T10:03:49;2.90;;;1.60;;
11907;SDS011;6014;47.690;9.130;2023-11-22T10:06:18;4.57;;;1.63;;
11907;SDS011;6014;47.690;9.130;2023-11-22T10:08:47;2.63;;;1.53;;
11907;SDS011;6014;47.690;9.130;2023-11-22T10:11:15;2.47;;;1.30;;
11907;SDS011;6014;47.690;9.130;2023-11-22T10:13:47;2.70;;;1.63;;
11907;SDS011;6014;47.690;9.130;2023-11-22T10:16:17;2.50;;;1.57;;
11907;SDS011;6014;47.690;9.130;2023-11-22T10:18:48;3.60;;;1.70;;
11907;SDS011;6014;47.690;9.130;2023-11-22T10:21:21;3.17;;;1.63;;
11907;SDS011;6014;47.690;9.130;2023-11-22T10:23:50;4.70;;;1.63;;
11907;SDS011;6014;47.690;9.130;2023-11-22T10:26:23;3.23;;;1.40;;
11907;SDS011;6014;47.690;9.130;2023-11-22T10:28:53;3.47;;;1.60;;
11907;SDS011;6014;47.690;9.130;2023-11-22T10:31:27;2.45;;;1.38;;
11907;SDS011;6014;47.690;9.130;2023-11-22T10:33:55;2.10;;;1.43;;
11907;SDS011;6014;47.690;9.130;2023-11-22T10:36:24;4.43;;;1.60;;
11907;SDS011;6014;47.690;9.130;2023-11-22T10:38:54;2.87;;;1.60;;
11907;SDS011;6014;47.690;9.130;2023-11-22T10:41:22;2.83;;;1.73;;
11907;SDS011;6014;47.690;9.130;2023-11-22T10:43:52;3.70;;;1.83;;
11907;SDS011;6014;47.690;9.130;2023-11-22T10:46:23;3.73;;;1.93;;
11907;SDS011;6014;47.690;9.130;2023-11-22T10:48:55;2.83;;;1.53;;
11907;SDS011;6014;47.690;9.130;2023-11-22T10:51:25;4.00;;;1.83;;
11907;SDS011;6014;47.690;9.130;2023-11-22T10:53:57;3.37;;;1.80;;
11907;SDS011;6014;47.690;9.130;2023-11-22T10:56:27;3.30;;;1.70;;
11907;SDS011;6014;47.690;9.130;2023-11-22T10:58:59;3.87;;;1.77;;
11907;SDS011;6014;47.690;9.130;2023-11-22T11:01:41;4.20;;;2.20;;
11907;SDS011;6014;47.690;9.130;2023-11-22T11:04:15;3.97;;;2.27;;
11907;SDS011;6014;47.690;9.130;2023-11-22T11:06:50;3.37;;;1.53;;
11907;SDS011;6014;47.690;9.130;2023-11-22T11:09:21;3.37;;;1.60;;
11907;SDS011;6014;47.690;9.130;2023-11-22T11:11:56;3.60;;;1.80;;
11907;SDS011;6014;47.690;9.130;2023-11-22T11:14:28;5.33;;;2.10;;
11907;SDS011;6014;47.690;9.130;2023-11-22T11:16:57;3.97;;;1.83;;
11907;SDS011;6014;47.690;9.130;2023-11-22T11:19:25;4.60;;;2.07;;
11907;SDS011;6014;47.690;9.130;2023-11-22T11:21:54;3.63;;;1.90;;
11907;SDS011;6014;47.690;9.130;2023-11-22T11:24:23;5.63;;;2.10;;
11907;SDS011;6014;47.690;9.130;2023-11-22T11:26:52;4.77;;;2.30;;
11907;SDS011;6014;47.690;9.130;2023-11-22T11:29:34;4.63;;;1.80;;
11907;SDS011;6014;47.690;9.130;2023-11-22T11:32:09;4.50;;;2.10;;
11907;SDS011;6014;47.690;9.130;2023-11-22T11:34:46;3.47;;;1.97;;
11907;SDS011;6014;47.690;9.130;2023-11-22T11:37:17;3.70;;;1.87;;
11907;SDS011;6014;47.690;9.130;2023-11-22T11:39:46;4.00;;;1.97;;
11907;SDS011;6014;47.690;9.130;2023-11-22T11:42:15;4.10;;;1.83;;
11907;SDS011;6014;47.690;9.130;2023-11-22T11:44:52;4.47;;;2.27;;
11907;SDS011;6014;47.690;9.130;2023-11-22T11:47:35;3.73;;;2.00;;
11907;SDS011;6014;47.690;9.130;2023-11-22T11:50:03;6.07;;;1.80;;
11907;SDS011;6014;47.690;9.130;2023-11-22T11:52:32;3.83;;;1.93;;
11907;SDS011;6014;47.690;9.130;2023-11-22T11:55:02;4.33;;;1.90;;
11907;SDS011;6014;47.690;9.130;2023-11-22T11:57:31;3.30;;;1.70;;
11907;SDS011;6014;47.690;9.130;2023-11-22T12:00:01;3.77;;;2.03;;
11907;SDS011;6014;47.690;9.130;2023-11-22T12:02:31;3.93;;;2.03;;
11907;SDS011;6014;47.690;9.130;2023-11-22T12:05:01;4.93;;;2.00;;
11907;SDS011;6014;47.690;9.130;2023-11-22T12:07:35;4.47;;;1.97;;
11907;SDS011;6014;47.690;9.130;2023-11-22T12:10:07;3.63;;;1.93;;
11907;SDS011;6014;47.690;9.130;2023-11-22T12:12:42;4.63;;;1.63;;
11907;SDS011;6014;47.690;9.130;2023-11-22T12:15:14;2.30;;;1.50;;
11907;SDS011;6014;47.690;9.130;2023-11-22T12:17:42;6.07;;;2.53;;
11907;SDS011;6014;47.690;9.130;2023-11-22T12:20:11;5.83;;;2.30;;
11907;SDS011;6014;47.690;9.130;2023-11-22T12:22:43;3.70;;;2.00;;
11907;SDS011;6014;47.690;9.130;2023-11-22T12:25:12;5.37;;;2.47;;
11907;SDS011;6014;47.690;9.130;2023-11-22T12:27:41;6.50;;;2.73;;
11907;SDS011;6014;47.690;9.130;2023-11-22T12:30:13;4.73;;;2.37;;
11907;SDS011;6014;47.690;9.130;2023-11-22T12:33:01;5.73;;;2.57;;
11907;SDS011;6014;47.690;9.130;2023-11-22T12:35:30;3.07;;;1.93;;
11907;SDS011;6014;47.690;9.130;2023-11-22T12:38:01;4.00;;;2.33;;
11907;SDS011;6014;47.690;9.130;2023-11-22T12:40:29;5.50;;;2.50;;
11907;SDS011;6014;47.690;9.130;2023-11-22T12:43:00;4.93;;;2.63;;
11907;SDS011;6014;47.690;9.130;2023-11-22T12:45:31;5.17;;;2.50;;
11907;SDS011;6014;47.690;9.130;2023-11-22T12:48:19;4.37;;;2.20;;
11907;SDS011;6014;47.690;9.130;2023-11-22T12:50:50;4.33;;;2.60;;
11907;SDS011;6014;47.690;9.130;2023-11-22T12:53:20;5.97;;;2.40;;
11907;SDS011;6014;47.690;9.130;2023-11-22T12:55:49;4.00;;;2.00;;
11907;SDS011;6014;47.690;9.130;2023-11-22T12:58:18;3.87;;;2.20;;
11907;SDS011;6014;47.690;9.130;2023-11-22T13:00:49;4.30;;;2.60;;
11907;SDS011;6014;47.690;9.130;2023-11-22T13:03:24;4.13;;;2.10;;
11907;SDS011;6014;47.690;9.130;2023-11-22T13:05:53;4.43;;;2.53;;
11907;SDS011;6014;47.690;9.130;2023-11-22T13:08:21;4.83;;;2.20;;
11907;SDS011;6014;47.690;9.130;2023-11-22T13:10:55;4.70;;;2.60;;
11907;SDS011;6014;47.690;9.130;2023-11-22T13:13:25;5.57;;;2.53;;
11907;SDS011;6014;47.690;9.130;2023-11-22T13:15:56;6.03;;;2.20;;
11907;SDS011;6014;47.690;9.130;2023-11-22T13:18:24;4.57;;;2.67;;
11907;SDS011;6014;47.690;9.130;2023-11-22T13:20:53;4.37;;;2.43;;
11907;SDS011;6014;47.690;9.130;2023-11-22T13:23:21;4.70;;;2.40;;
11907;SDS011;6014;47.690;9.130;2023-11-22T13:25:50;4.20;;;2.10;;
11907;SDS011;6014;47.690;9.130;2023-11-22T13:28:19;3.57;;;2.20;;
11907;SDS011;6014;47.690;9.130;2023-11-22T13:30:47;4.03;;;2.20;;
11907;SDS011;6014;47.690;9.130;2023-11-22T13:33:18;4.37;;;2.07;;
11907;SDS011;6014;47.690;9.130;2023-11-22T13:35:46;5.00;;;2.30;;
11907;SDS011;6014;47.690;9.130;2023-11-22T13:38:16;4.00;;;2.20;;
11907;SDS011;6014;47.690;9.130;2023-11-22T13:40:44;5.10;;;2.57;;
11907;SDS011;6014;47.690;9.130;2023-11-22T13:43:13;4.63;;;2.20;;
11907;SDS011;6014;47.690;9.130;2023-11-22T13:45:43;5.70;;;2.40;;
11907;SDS011;6014;47.690;9.130;2023-11-22T13:48:12;4.80;;;2.50;;
11907;SDS011;6014;47.690;9.130;2023-11-22T13:50:41;3.80;;;2.10;;
11907;SDS011;6014;47.690;9.130;2023-11-22T13:53:09;7.13;;;2.27;;
11907;SDS011;6014;47.690;9.130;2023-11-22T13:55:53;3.87;;;2.23;;
11907;SDS011;6014;47.690;9.130;2023-11-22T13:58:21;3.83;;;2.00;;
11907;SDS011;6014;47.690;9.130;2023-11-22T14:00:50;3.77;;;2.47;;
11907;SDS011;6014;47.690;9.130;2023-11-22T14:03:20;3.87;;;2.07;;
11907;SDS011;6014;47.690;9.130;2023-11-22T14:05:51;5.53;;;2.40;;
11907;SDS011;6014;47.690;9.130;2023-11-22T14:08:19;4.97;;;2.30;;
11907;SDS011;6014;47.690;9.130;2023-11-22T14:10:47;5.30;;;2.33;;
11907;SDS011;6014;47.690;9.130;2023-11-22T14:13:17;4.77;;;2.03;;
11907;SDS011;6014;47.690;9.130;2023-11-22T14:15:47;3.53;;;1.90;;
11907;SDS011;6014;47.690;9.130;2023-11-22T14:18:15;4.60;;;2.10;;
11907;SDS011;6014;47.690;9.130;2023-11-22T14:20:44;3.67;;;1.90;;
11907;SDS011;6014;47.690;9.130;2023-11-22T14:23:14;4.63;;;2.37;;
11907;SDS011;6014;47.690;9.130;2023-11-22T14:25:43;4.63;;;2.30;;
11907;SDS011;6014;47.690;9.130;2023-11-22T14:28:11;4.27;;;2.03;;
11907;SDS011;6014;47.690;9.130;2023-11-22T14:30:40;3.80;;;2.07;;
11907;SDS011;6014;47.690;9.130;2023-11-22T14:33:19;7.57;;;2.10;;
11907;SDS011;6014;47.690;9.130;2023-11-22T14:35:47;6.83;;;2.53;;
11907;SDS011;6014;47.690;9.130;2023-11-22T14:38:17;3.73;;;2.00;;
11907;SDS011;6014;47.690;9.130;2023-11-22T14:40:47;3.80;;;1.97;;
11907;SDS011;6014;47.690;9.130;2023-11-22T14:43:15;4.30;;;2.30;;
11907;SDS011;6014;47.690;9.130;2023-11-22T14:45:43;5.50;;;2.53;;
11907;SDS011;6014;47.690;9.130;2023-11-22T14:48:12;4.93;;;2.23;;
11907;SDS011;6014;47.690;9.130;2023-11-22T14:50:44;4.60;;;2.47;;
11907;SDS011;6014;47.690;9.130;2023-11-22T14:53:12;5.03;;;2.63;;
11907;SDS011;6014;47.690;9.130;2023-11-22T14:55:42;4.40;;;2.27;;
11907;SDS011;6014;47.690;9.130;2023-11-22T14:58:10;4.57;;;2.47;;
11907;SDS011;6014;47.690;9.130;2023-11-22T15:00:38;4.40;;;2.10;;
11907;SDS011;6014;47.690;9.130;2023-11-22T15:03:07;4.13;;;2.00;;
11907;SDS011;6014;47.690;9.130;2023-11-22T15:05:35;6.80;;;2.43;;
11907;SDS011;6014;47.690;9.130;2023-11-22T15:08:03;6.33;;;2.77;;
11907;SDS011;6014;47.690;9.130;2023-11-22T15:10:32;5.20;;;3.13;;
11907;SDS011;6014;47.690;9.130;2023-11-22T15:13:01;5.27;;;2.30;;
11907;SDS011;6014;47.690;9.130;2023-11-22T15:15:29;5.40;;;2.67;;
11907;SDS011;6014;47.690;9.130;2023-11-22T15:17:57;6.20;;;2.70;;
11907;SDS011;6014;47.690;9.130;2023-11-22T15:20:26;5.37;;;2.90;;
11907;SDS011;6014;47.690;9.130;2023-11-22T15:22:56;5.73;;;2.73;;
11907;SDS011;6014;47.690;9.130;2023-11-22T15:25:25;5.43;;;2.87;;
11907;SDS011;6014;47.690;9.130;2023-11-22T15:27:53;5.70;;;3.17;;
11907;SDS011;6014;47.690;9.130;2023-11-22T15:30:23;5.93;;;2.93;;